createdAt,value
2023-02-08T00:03:32.696Z,35.96
2023-02-08T00:08:36.024Z,36.31
2023-02-08T00:13:41.967Z,36.45
2023-02-08T00:18:44.624Z,35.92
2023-02-08T00:23:47.221Z,35.93
2023-02-08T00:28:49.301Z,35.83
2023-02-08T00:33:51.417Z,36.22
2023-02-08T00:38:53.777Z,35.61
2023-02-08T00:43:56.007Z,35.48
2023-02-08T00:48:58.178Z,35.56
2023-02-08T00:54:00.233Z,35.64
2023-02-08T00:59:02.423Z,35.03
2023-02-08T01:04:05.278Z,35.40
2023-02-08T01:09:07.605Z,35.37
2023-02-08T01:14:09.804Z,35.28
2023-02-08T01:19:12.582Z,35.29
2023-02-08T01:24:14.751Z,35.93
2023-02-08T01:29:17.455Z,36.21
2023-02-08T01:34:19.867Z,36.84
2023-02-08T01:39:21.970Z,36.58
2023-02-08T01:45:01.609Z,36.79
2023-02-08T01:50:03.846Z,36.86
2023-02-08T01:55:14.216Z,36.60
2023-02-08T02:00:18.848Z,36.66
2023-02-08T02:05:24.227Z,37.27
2023-02-08T02:10:35.070Z,37.33
2023-02-08T02:15:37.308Z,37.99
2023-02-08T02:21:29.826Z,38.25
2023-02-08T02:27:10.664Z,37.72
2023-02-08T02:32:42.258Z,38.39
2023-02-08T02:38:02.888Z,38.24
2023-02-08T02:43:33.224Z,37.72
2023-02-08T02:48:59.822Z,37.78
2023-02-08T02:54:10.003Z,37.58
2023-02-08T02:59:13.960Z,37.74
2023-02-08T03:04:35.581Z,37.44
2023-02-08T03:10:06.559Z,37.63
2023-02-08T03:15:37.873Z,37.25
2023-02-08T03:20:46.195Z,37.84
2023-02-08T03:25:56.053Z,37.44
2023-02-08T03:31:13.294Z,38.31
2023-02-08T03:36:26.507Z,38.13
2023-02-08T03:41:37.390Z,38.84
2023-02-08T03:47:03.688Z,39.35
2023-02-08T03:52:09.970Z,39.49
2023-02-08T03:57:26.489Z,38.81
2023-02-08T04:02:33.965Z,38.41
2023-02-08T04:07:36.242Z,38.39
2023-02-08T04:12:38.493Z,38.69
2023-02-08T04:17:40.581Z,38.21
2023-02-08T04:22:42.792Z,38.51
2023-02-08T04:27:44.956Z,38.57
2023-02-08T04:32:47.516Z,38.79
2023-02-08T04:37:50.013Z,38.91
2023-02-08T04:42:52.173Z,38.24
2023-02-08T04:47:54.398Z,38.38
2023-02-08T04:52:56.676Z,38.06
2023-02-08T04:57:59.055Z,37.74
2023-02-08T05:03:01.145Z,39.33
2023-02-08T05:08:04.030Z,38.92
2023-02-08T05:13:06.155Z,38.62
2023-02-08T05:18:08.238Z,37.98
2023-02-08T05:23:10.326Z,38.25
2023-02-08T05:28:12.407Z,38.24
2023-02-08T05:33:14.834Z,38.21
2023-02-08T05:38:16.966Z,37.85
2023-02-08T05:43:19.132Z,38.14
2023-02-08T05:48:21.265Z,37.91
2023-02-08T05:53:23.418Z,37.55
2023-02-08T05:58:26.355Z,37.18
2023-02-08T06:03:28.680Z,36.86
2023-02-08T06:08:30.814Z,37.20
2023-02-08T06:13:32.928Z,38.15
2023-02-08T06:18:35.016Z,39.24
2023-02-08T06:23:37.185Z,39.29
2023-02-08T06:28:39.357Z,39.38
2023-02-08T06:33:41.487Z,39.66
2023-02-08T06:38:43.631Z,40.21
2023-02-08T06:43:45.940Z,40.02
2023-02-08T06:48:48.077Z,39.77
2023-02-08T06:53:50.214Z,39.91
2023-02-08T06:58:52.350Z,39.53
2023-02-08T07:03:54.566Z,39.42
2023-02-08T07:08:56.703Z,40.69
2023-02-08T07:13:58.978Z,40.45
2023-02-08T07:19:01.142Z,40.18
2023-02-08T07:24:03.446Z,40.05
2023-02-08T07:29:05.796Z,39.44
2023-02-08T07:34:07.979Z,38.39
2023-02-08T07:39:10.135Z,37.27
2023-02-08T07:44:12.291Z,36.42
2023-02-08T07:49:14.458Z,36.23
2023-02-08T07:54:16.774Z,35.98
2023-02-08T07:59:18.976Z,35.79
2023-02-08T08:04:22.348Z,35.73
2023-02-08T08:09:24.659Z,35.14
2023-02-08T08:14:26.875Z,34.82
2023-02-08T08:19:29.160Z,34.01
2023-02-08T08:24:35.790Z,33.71
2023-02-08T08:29:39.121Z,33.56
2023-02-08T08:34:41.259Z,32.89
2023-02-08T08:39:43.844Z,32.88
2023-02-08T08:44:45.915Z,33.04
2023-02-08T08:49:48.148Z,32.55
2023-02-08T08:54:50.261Z,32.35
2023-02-08T08:59:52.405Z,31.48
2023-02-08T09:04:54.583Z,32.00
2023-02-08T09:09:56.885Z,31.73
2023-02-08T09:14:59.070Z,31.42
2023-02-08T09:20:02.307Z,31.18
2023-02-08T09:25:06.466Z,30.86
2023-02-08T09:30:09.451Z,30.63
2023-02-08T09:35:13.709Z,30.54
2023-02-08T09:40:29.093Z,30.98
2023-02-08T09:45:59.301Z,30.70
2023-02-08T09:51:27.891Z,30.21
2023-02-08T09:56:40.565Z,30.00
2023-02-08T10:01:43.096Z,30.03
2023-02-08T10:06:45.258Z,28.78
2023-02-08T10:12:06.001Z,28.62
2023-02-08T10:17:11.350Z,29.10
2023-02-08T10:22:16.290Z,28.76
2023-02-08T10:27:31.800Z,28.33
2023-02-08T10:32:58.861Z,27.70
2023-02-08T10:38:01.230Z,28.18
2023-02-08T10:43:18.509Z,28.01
2023-02-08T10:48:53.144Z,28.35
2023-02-08T10:53:55.220Z,28.61
2023-02-08T10:58:59.572Z,29.34
2023-02-08T11:04:11.749Z,29.20
2023-02-08T11:09:31.417Z,29.43
2023-02-08T11:14:47.261Z,29.67
2023-02-08T11:19:50.987Z,28.71
2023-02-08T11:25:01.829Z,28.42
2023-02-08T11:30:16.567Z,27.79
2023-02-08T11:35:22.177Z,28.06
2023-02-08T11:40:30.408Z,28.74
2023-02-08T11:45:36.044Z,29.07
2023-02-08T11:50:39.205Z,29.33
2023-02-08T11:55:41.559Z,29.32
2023-02-08T12:01:00.100Z,29.14
2023-02-08T12:06:27.897Z,29.85
2023-02-08T12:11:43.573Z,29.90
2023-02-08T12:17:29.682Z,29.18
2023-02-08T12:22:32.048Z,28.19
2023-02-08T12:27:55.380Z,27.97
2023-02-08T12:33:18.869Z,28.36
2023-02-08T12:38:55.394Z,28.76
2023-02-08T12:44:25.729Z,28.52
2023-02-08T12:49:54.673Z,28.64
2023-02-08T12:55:06.765Z,28.73
2023-02-08T13:00:22.140Z,28.70
2023-02-08T13:05:28.770Z,28.84
2023-02-08T13:10:37.139Z,29.53
2023-02-08T13:15:45.923Z,30.26
2023-02-08T13:21:08.216Z,30.33
2023-02-08T13:26:19.434Z,30.39
2023-02-08T13:31:32.379Z,29.76
2023-02-08T13:36:37.448Z,30.05
2023-02-08T13:41:50.717Z,30.14
2023-02-08T13:46:52.954Z,30.32
2023-02-08T13:51:55.450Z,30.11
2023-02-08T13:56:58.067Z,30.67
2023-02-08T14:02:12.312Z,30.66
2023-02-08T14:07:17.281Z,31.26
2023-02-08T14:12:35.046Z,30.94
2023-02-08T14:17:40.834Z,31.05
2023-02-08T14:22:52.773Z,30.59
2023-02-08T14:27:57.354Z,30.74
2023-02-08T14:33:23.633Z,30.57
2023-02-08T14:38:26.072Z,30.23
2023-02-08T14:43:29.812Z,29.92
2023-02-08T14:48:53.324Z,29.74
2023-02-08T14:54:01.625Z,29.50
2023-02-08T14:59:11.732Z,28.80
2023-02-08T15:04:15.645Z,28.31
2023-02-08T15:09:24.265Z,27.84
2023-02-08T15:14:27.218Z,27.77
2023-02-08T15:19:35.893Z,27.80
2023-02-08T15:24:38.225Z,28.17
2023-02-08T15:29:44.966Z,29.63
2023-02-08T15:34:54.619Z,30.34
2023-02-08T15:39:58.419Z,30.82
2023-02-08T15:45:03.036Z,30.98
2023-02-08T15:50:08.272Z,31.46
2023-02-08T15:55:17.136Z,32.03
2023-02-08T16:00:27.015Z,32.79
2023-02-08T16:05:31.347Z,33.48
2023-02-08T16:10:43.508Z,33.63
2023-02-08T16:15:55.562Z,33.56
2023-02-08T16:21:02.086Z,34.36
2023-02-08T16:26:32.573Z,34.83
2023-02-08T16:31:36.245Z,33.89
2023-02-08T16:36:42.064Z,33.25
2023-02-08T16:41:55.572Z,33.05
2023-02-08T16:47:27.812Z,32.38
2023-02-08T16:52:30.005Z,32.54
2023-02-08T16:57:42.765Z,32.46
2023-02-08T17:02:45.116Z,32.37
2023-02-08T17:07:47.544Z,32.13
2023-02-08T17:12:49.910Z,32.15
2023-02-08T17:17:53.183Z,32.00
2023-02-08T17:22:57.109Z,31.52
2023-02-08T17:28:03.095Z,32.04
2023-02-08T17:33:07.038Z,31.15
2023-02-08T17:38:09.199Z,31.16
2023-02-08T17:43:13.253Z,30.44
2023-02-08T17:48:15.634Z,31.06
2023-02-08T17:53:18.946Z,31.39
2023-02-08T17:58:21.358Z,31.37
2023-02-08T18:03:23.438Z,31.24
2023-02-08T18:08:26.516Z,31.13
2023-02-08T18:13:28.689Z,31.01
2023-02-08T18:18:30.914Z,31.15
2023-02-08T18:23:33.139Z,30.70
2023-02-08T18:28:35.873Z,30.56
2023-02-08T18:33:38.531Z,30.94
2023-02-08T18:38:45.891Z,30.27
2023-02-08T18:43:49.546Z,30.45
2023-02-08T18:48:54.174Z,30.58
2023-02-08T18:53:56.640Z,32.42
2023-02-08T18:59:00.940Z,34.07
2023-02-08T19:04:06.225Z,34.14
2023-02-08T19:09:09.656Z,33.19
2023-02-08T19:14:16.053Z,33.44
2023-02-08T19:19:18.322Z,33.01
2023-02-08T19:24:20.558Z,33.46
2023-02-08T19:29:23.151Z,33.46
2023-02-08T19:34:25.591Z,33.63
2023-02-08T19:39:28.557Z,33.49
2023-02-08T19:44:30.918Z,33.95
2023-02-08T19:49:33.229Z,33.79
2023-02-08T19:54:35.404Z,33.88
2023-02-08T19:59:37.527Z,33.73
2023-02-08T20:04:40.283Z,34.11
2023-02-08T20:09:42.378Z,33.63
2023-02-08T20:14:44.563Z,33.47
2023-02-08T20:19:46.746Z,33.28
2023-02-08T20:24:48.852Z,32.76
2023-02-08T20:29:50.931Z,33.29
2023-02-08T20:34:59.557Z,32.71
2023-02-08T20:40:02.412Z,33.20
2023-02-08T20:45:06.765Z,32.85
2023-02-08T20:50:18.307Z,33.11
2023-02-08T20:55:21.531Z,32.87
2023-02-08T21:00:27.917Z,32.83
2023-02-08T21:05:35.649Z,33.02
2023-02-08T21:10:37.900Z,33.14
2023-02-08T21:15:44.540Z,32.84
2023-02-08T21:20:47.110Z,32.56
2023-02-08T21:25:49.761Z,32.29
2023-02-08T21:31:15.476Z,32.65
2023-02-08T21:36:22.225Z,32.70
2023-02-08T21:41:26.977Z,32.74
2023-02-08T21:46:29.455Z,32.20
2023-02-08T21:51:50.957Z,32.56
2023-02-08T21:56:53.027Z,32.46
2023-02-08T22:01:55.297Z,32.44
2023-02-08T22:06:57.564Z,32.94
2023-02-08T22:12:00.000Z,32.82
2023-02-08T22:17:02.525Z,32.83
2023-02-08T22:22:04.798Z,32.70
2023-02-08T22:27:07.213Z,32.02
2023-02-08T22:32:10.251Z,31.63
2023-02-08T22:37:12.963Z,31.34
2023-02-08T22:42:15.257Z,31.01
2023-02-08T22:47:17.455Z,31.44
2023-02-08T22:52:19.722Z,32.13
2023-02-08T22:57:21.938Z,32.52
2023-02-08T23:02:24.945Z,33.12
2023-02-08T23:07:27.115Z,33.80
2023-02-08T23:12:29.704Z,34.01
2023-02-08T23:17:32.003Z,34.34
2023-02-08T23:22:38.155Z,34.93
2023-02-08T23:27:40.309Z,35.21
2023-02-08T23:32:42.973Z,35.27
2023-02-08T23:37:45.146Z,35.82
2023-02-08T23:42:47.338Z,36.51
2023-02-08T23:47:49.454Z,37.22
2023-02-08T23:52:51.598Z,37.71
2023-02-08T23:57:53.785Z,37.62
